createdAt,value
2022-12-03T00:00:21.451Z,64.84
2022-12-03T00:02:48.204Z,64.98
2022-12-03T00:05:15.042Z,65.12
2022-12-03T00:07:41.863Z,65.04
2022-12-03T00:10:09.008Z,65.14
2022-12-03T00:12:35.847Z,65.27
2022-12-03T00:15:02.552Z,64.94
2022-12-03T00:17:29.182Z,65.08
2022-12-03T00:19:56.028Z,65.25
2022-12-03T00:22:22.661Z,64.92
2022-12-03T00:24:49.298Z,64.90
2022-12-03T00:27:15.945Z,64.99
2022-12-03T00:29:42.699Z,64.89
2022-12-03T00:32:09.445Z,65.16
2022-12-03T00:34:36.088Z,65.28
2022-12-03T00:37:02.756Z,65.28
2022-12-03T00:39:29.392Z,65.16
2022-12-03T00:41:56.031Z,65.03
2022-12-03T00:44:22.733Z,64.99
2022-12-03T00:46:49.434Z,65.12
2022-12-03T00:49:16.194Z,65.13
2022-12-03T00:51:42.815Z,65.16
2022-12-03T00:54:09.459Z,65.06
2022-12-03T00:56:36.116Z,65.02
2022-12-03T00:59:02.743Z,64.98
2022-12-03T01:01:29.422Z,65.20
2022-12-03T01:03:56.220Z,65.25
2022-12-03T01:06:22.822Z,65.34
2022-12-03T01:08:49.462Z,65.44
2022-12-03T01:11:34.789Z,65.33
2022-12-03T01:14:01.405Z,65.65
2022-12-03T01:16:28.124Z,65.66
2022-12-03T01:18:54.788Z,65.75
2022-12-03T01:21:21.422Z,65.66
2022-12-03T01:23:48.155Z,65.96
2022-12-03T01:26:14.793Z,65.76
2022-12-03T01:28:44.705Z,65.88
2022-12-03T01:31:30.310Z,66.12
2022-12-03T01:33:57.033Z,66.40
2022-12-03T01:36:23.659Z,66.36
2022-12-03T01:38:50.296Z,66.20
2022-12-03T01:41:17.674Z,66.38
2022-12-03T01:43:44.369Z,66.53
2022-12-03T01:46:13.577Z,66.59
2022-12-03T01:48:41.154Z,66.43
2022-12-03T01:51:07.843Z,66.67
2022-12-03T01:53:34.646Z,66.65
2022-12-03T01:56:01.429Z,66.66
2022-12-03T01:58:28.608Z,66.33
2022-12-03T02:00:56.809Z,66.47
2022-12-03T02:03:24.898Z,66.52
2022-12-03T02:05:52.312Z,66.39
2022-12-03T02:08:33.777Z,66.57
2022-12-03T02:11:15.528Z,66.31
2022-12-03T02:13:42.187Z,66.57
2022-12-03T02:16:08.899Z,66.70
2022-12-03T02:18:35.536Z,66.94
2022-12-03T02:21:12.222Z,66.80
2022-12-03T02:23:52.253Z,66.96
2022-12-03T02:26:18.874Z,66.81
2022-12-03T02:28:45.563Z,66.96
2022-12-03T02:31:12.219Z,66.76
2022-12-03T02:33:38.939Z,66.86
2022-12-03T02:36:05.960Z,66.83
2022-12-03T02:38:32.713Z,66.94
2022-12-03T02:41:01.105Z,67.05
2022-12-03T02:43:27.763Z,67.10
2022-12-03T02:45:55.589Z,67.01
2022-12-03T02:48:32.507Z,67.14
2022-12-03T02:51:00.487Z,67.20
2022-12-03T02:53:33.453Z,67.14
2022-12-03T06:02:17.919Z,77.63
2022-12-03T06:04:44.717Z,77.73
2022-12-03T06:07:14.100Z,77.55
2022-12-03T06:09:41.180Z,77.27
2022-12-03T06:12:10.681Z,77.02
2022-12-03T06:14:37.330Z,76.87
2022-12-03T06:17:04.987Z,76.51
2022-12-03T06:19:31.628Z,76.21
2022-12-03T06:21:58.292Z,76.10
2022-12-03T06:24:25.922Z,75.96
2022-12-03T06:26:52.573Z,75.78
2022-12-03T06:29:19.189Z,75.59
2022-12-03T06:31:50.187Z,75.42
2022-12-03T06:34:16.838Z,75.44
2022-12-03T06:36:43.490Z,75.33
2022-12-03T06:39:10.208Z,75.21
2022-12-03T06:41:36.899Z,75.09
2022-12-03T06:44:03.591Z,75.01
2022-12-03T06:46:30.326Z,75.01
2022-12-03T06:48:57.011Z,74.98
2022-12-03T06:51:23.636Z,75.09
2022-12-03T06:53:50.255Z,75.33
2022-12-03T06:56:20.162Z,75.40
2022-12-03T06:58:48.849Z,75.41
2022-12-03T07:01:15.479Z,75.70
2022-12-03T07:03:42.139Z,75.62
2022-12-03T07:06:08.876Z,75.65
2022-12-03T07:08:35.496Z,75.80
2022-12-03T07:11:02.197Z,75.96
2022-12-03T07:13:28.808Z,76.03
2022-12-03T07:15:55.514Z,76.33
2022-12-03T07:18:22.216Z,76.63
2022-12-03T07:20:49.028Z,76.68
2022-12-03T07:23:15.639Z,76.96
2022-12-03T07:25:42.291Z,77.39
2022-12-03T07:28:08.936Z,77.55
2022-12-03T07:30:35.556Z,77.93
2022-12-03T07:33:02.238Z,78.44
2022-12-03T07:35:28.874Z,78.73
2022-12-03T07:37:55.552Z,79.10
2022-12-03T07:40:22.195Z,79.48
2022-12-03T07:42:48.836Z,79.73
2022-12-03T07:45:15.477Z,79.96
2022-12-03T07:47:42.144Z,80.28
2022-12-03T07:50:10.592Z,80.59
2022-12-03T07:52:37.285Z,81.08
2022-12-03T07:55:04.328Z,81.36
2022-12-03T07:57:30.993Z,81.79
2022-12-03T07:59:57.604Z,82.02
2022-12-03T08:02:24.277Z,82.36
2022-12-03T08:04:51.243Z,82.59
2022-12-03T08:07:18.082Z,82.80
2022-12-03T08:09:44.890Z,83.11
2022-12-03T08:12:22.887Z,83.24
2022-12-03T08:14:49.736Z,83.36
2022-12-03T08:17:18.569Z,83.48
2022-12-03T08:19:46.822Z,83.33
2022-12-03T08:22:14.140Z,83.31
2022-12-03T08:24:41.049Z,83.23
2022-12-03T08:27:16.731Z,83.26
2022-12-03T08:29:43.519Z,83.22
2022-12-03T08:32:13.661Z,83.31
2022-12-03T08:34:41.936Z,83.21
2022-12-03T08:37:18.532Z,83.13
2022-12-03T08:39:46.718Z,83.06
2022-12-03T08:42:36.698Z,83.07
2022-12-03T08:45:21.808Z,82.97
2022-12-03T08:47:48.513Z,82.64
2022-12-03T08:50:26.877Z,82.56
2022-12-03T08:52:54.226Z,82.35
2022-12-03T08:55:34.408Z,82.14
2022-12-03T08:58:01.060Z,82.03
2022-12-03T09:00:27.786Z,81.76
2022-12-03T09:02:55.290Z,81.62
2022-12-03T09:05:23.433Z,81.62
2022-12-03T09:07:50.213Z,81.26
2022-12-03T09:10:17.002Z,81.13
2022-12-03T09:12:45.071Z,81.19
2022-12-03T09:15:12.992Z,80.87
2022-12-03T09:17:39.647Z,81.01
2022-12-03T09:20:06.884Z,81.16
2022-12-03T09:22:33.619Z,80.96
2022-12-03T09:25:00.230Z,81.21
2022-12-03T09:27:26.870Z,81.53
2022-12-03T09:29:53.481Z,81.37
2022-12-03T09:32:20.209Z,81.24
2022-12-03T09:34:47.022Z,80.95
2022-12-03T09:37:13.700Z,81.06
2022-12-03T09:39:40.358Z,81.11
2022-12-03T09:42:07.060Z,80.96
2022-12-03T09:44:33.990Z,81.24
2022-12-03T09:47:03.936Z,81.07
2022-12-03T09:49:31.798Z,80.97
2022-12-03T09:51:58.788Z,80.99
2022-12-03T09:54:26.940Z,81.26
2022-12-03T09:56:54.494Z,81.43
2022-12-03T09:59:21.186Z,81.63
2022-12-03T10:01:48.108Z,81.88
2022-12-03T10:04:14.965Z,81.91
2022-12-03T10:06:45.802Z,81.91
2022-12-03T10:09:14.530Z,82.09
2022-12-03T10:11:41.196Z,82.35
2022-12-03T10:14:11.500Z,82.45
2022-12-03T10:16:40.195Z,82.64
2022-12-03T10:19:09.501Z,82.60
2022-12-03T10:21:36.836Z,82.88
2022-12-03T10:24:25.955Z,82.93
2022-12-03T10:26:54.539Z,82.89
2022-12-03T10:29:25.851Z,82.90
2022-12-03T10:31:58.247Z,82.75
2022-12-03T10:34:26.376Z,82.70
2022-12-03T10:37:11.852Z,82.63
2022-12-03T10:40:00.643Z,82.30
2022-12-03T10:42:29.138Z,81.89
2022-12-03T10:45:16.662Z,81.90
2022-12-03T10:47:44.599Z,81.89
2022-12-03T10:50:16.958Z,81.68
2022-12-03T10:52:43.876Z,81.54
2022-12-03T10:55:12.773Z,81.05
2022-12-03T10:57:45.048Z,80.89
2022-12-03T11:00:19.402Z,80.56
2022-12-03T11:02:51.684Z,80.39
2022-12-03T15:23:36.402Z,100.00
2022-12-03T15:26:03.407Z,100.00
2022-12-03T15:28:30.063Z,100.00
2022-12-03T15:30:56.775Z,100.00
2022-12-03T15:33:23.508Z,100.00
2022-12-03T15:35:50.111Z,100.00
2022-12-03T15:38:16.911Z,99.97
2022-12-03T15:40:43.658Z,99.69
2022-12-03T15:43:10.276Z,99.21
2022-12-03T15:45:37.168Z,98.78
2022-12-03T15:48:03.995Z,98.23
2022-12-03T15:50:33.523Z,97.80
2022-12-03T15:53:02.359Z,97.39
2022-12-03T15:55:29.037Z,96.88
2022-12-03T15:57:55.676Z,96.65
2022-12-03T16:00:22.433Z,96.30
2022-12-03T16:02:52.717Z,95.77
2022-12-03T16:05:19.845Z,95.42
2022-12-03T16:07:46.543Z,94.74
2022-12-03T16:10:13.354Z,94.39
2022-12-03T16:12:40.080Z,94.11
2022-12-03T16:15:07.049Z,93.99
2022-12-03T16:17:33.932Z,93.34
2022-12-03T16:20:00.623Z,93.20
2022-12-03T16:22:27.255Z,92.69
2022-12-03T16:24:53.881Z,92.23
2022-12-03T16:27:25.312Z,91.93
2022-12-03T16:29:52.767Z,91.37
2022-12-03T16:32:19.781Z,90.89
2022-12-03T16:34:46.411Z,90.40
2022-12-03T16:37:13.160Z,90.23
2022-12-03T16:39:46.982Z,89.66
2022-12-03T16:42:17.243Z,89.26
2022-12-03T16:44:59.505Z,89.00
2022-12-03T16:47:32.075Z,88.12
2022-12-03T16:50:01.106Z,87.52
2022-12-03T16:52:27.880Z,86.77
2022-12-03T16:54:54.489Z,86.01
2022-12-03T16:57:21.130Z,85.87
2022-12-03T16:59:47.795Z,85.04
2022-12-03T17:02:14.545Z,84.19
2022-12-03T17:04:41.317Z,83.72
2022-12-03T17:07:07.993Z,83.16
2022-12-03T17:09:34.641Z,82.79
2022-12-03T17:12:01.477Z,82.07
2022-12-03T17:14:33.025Z,81.95
2022-12-03T17:17:00.204Z,81.61
2022-12-03T17:19:26.972Z,81.39
2022-12-03T17:21:54.251Z,81.23
2022-12-03T17:24:21.544Z,80.83
2022-12-03T17:26:48.271Z,80.25
2022-12-03T17:29:14.929Z,79.97
2022-12-03T17:31:42.727Z,80.02
2022-12-03T17:34:09.882Z,79.46
2022-12-03T17:36:36.538Z,79.42
2022-12-03T17:39:03.374Z,79.16
2022-12-03T17:41:30.082Z,78.73
2022-12-03T17:43:56.790Z,78.23
2022-12-03T17:46:23.505Z,78.25
2022-12-03T17:48:50.291Z,78.25
2022-12-03T17:51:17.135Z,78.22
2022-12-03T17:53:43.850Z,78.15
2022-12-03T17:56:10.569Z,78.07
2022-12-03T17:58:37.216Z,77.99
2022-12-03T18:01:05.461Z,77.98
2022-12-03T18:03:32.314Z,78.02
2022-12-03T18:05:59.100Z,77.97
2022-12-03T18:08:25.717Z,78.04
2022-12-03T18:10:52.341Z,77.91
2022-12-03T18:13:18.983Z,77.65
2022-12-03T18:15:45.648Z,77.71
2022-12-03T18:18:12.284Z,77.23
2022-12-03T18:20:38.896Z,77.22
2022-12-03T18:23:05.586Z,77.27
2022-12-03T18:25:32.859Z,77.29
2022-12-03T18:27:59.571Z,77.16
